Time;durP1;ratioP1;P1;durP2;ratioP2;P2;SDS_P1;SDS_P2;PMS_P1;PMS_P2;Temp;Humidity;BMP_temperature;BMP_pressure;BME280_temperature;BME280_humidity;BME280_pressure;Samples;Min_cycle;Max_cycle;Signal;HPM_P1;HPM_P2
2022/08/24 00:04:09;;;;;;;1.45;0.50;;;;;;;24.37;45.53;101661.31;16145790;19;129084;-43
2022/08/24 00:09:34;;;;;;;0.98;0.50;;;;;;;24.36;45.54;101651.25;16143586;19;129322;-43
2022/08/24 00:14:56;;;;;;;0.75;0.40;;;;;;;24.36;45.18;101670.81;16146229;19;129444;-43
2022/08/24 00:20:18;;;;;;;0.70;0.40;;;;;;;24.35;45.33;101669.13;16141642;19;129390;-44
2022/08/24 00:25:41;;;;;;;1.38;0.45;;;;;;;24.34;45.30;101661.84;16141841;19;128846;-47
2022/08/24 00:31:03;;;;;;;1.90;0.43;;;;;;;24.34;45.22;101659.88;16141843;19;130373;-49
2022/08/24 00:36:28;;;;;;;0.50;0.40;;;;;;;24.34;45.45;101656.25;16141098;19;129479;-43
2022/08/24 00:41:51;;;;;;;0.68;0.40;;;;;;;24.33;45.36;101660.16;16139305;19;129277;-43
2022/08/24 00:47:41;;;;;;;2.20;0.50;;;;;;;24.33;45.39;101665.75;16141641;19;129825;-44
2022/08/24 00:53:18;;;;;;;0.60;0.35;;;;;;;24.32;45.40;101662.09;16136983;19;129486;-45
2022/08/24 00:58:46;;;;;;;0.85;0.50;;;;;;;24.32;45.42;101650.09;16134068;19;129675;-46
2022/08/24 01:04:27;;;;;;;0.38;0.20;;;;;;;24.31;45.26;101645.59;16140645;19;130484;-43
2022/08/24 01:09:52;;;;;;;0.68;0.47;;;;;;;24.29;45.61;101648.69;16132902;19;129430;-44
2022/08/24 01:15:15;;;;;;;;;;;;;;;24.26;45.50;101649.22;16137958;19;129445;-47
2022/08/24 01:20:38;;;;;;;0.63;0.30;;;;;;;24.29;45.57;101657.06;16137582;19;129175;-44
2022/08/24 01:26:01;;;;;;;0.40;0.40;;;;;;;24.27;45.38;101642.50;16136075;19;129477;-44
2022/08/24 01:31:24;;;;;;;0.30;0.30;;;;;;;24.26;45.35;101650.03;16134570;19;130374;-44
2022/08/24 01:36:49;;;;;;;0.57;0.30;;;;;;;24.26;44.98;101652.84;16135363;19;129358;-43
2022/08/24 01:42:13;;;;;;;0.50;0.40;;;;;;;24.25;45.53;101648.34;16136218;19;129920;-45
2022/08/24 01:47:36;;;;;;;;;;;;;;;24.21;45.32;101641.59;16137457;19;130108;-44
2022/08/24 01:53:01;;;;;;;0.40;0.30;;;;;;;24.23;45.19;101636.59;16130175;19;129378;-43
2022/08/24 01:58:35;;;;;;;0.40;0.40;;;;;;;24.22;45.38;101634.91;16135436;19;130116;-43
2022/08/24 02:04:01;;;;;;;0.50;0.40;;;;;;;24.21;45.29;101640.72;16133108;19;130546;-43
2022/08/24 02:09:23;;;;;;;2.17;0.40;;;;;;;24.21;45.11;101636.00;16135332;19;130035;-43
2022/08/24 02:14:52;;;;;;;0.40;0.25;;;;;;;24.21;45.04;101646.31;16127462;19;133051;-47
2022/08/24 02:20:14;;;;;;;0.47;0.30;;;;;;;24.19;45.51;101643.81;16133400;19;130313;-48
2022/08/24 02:25:37;;;;;;;0.32;0.28;;;;;;;24.20;45.56;101651.09;16131687;19;130025;-42
2022/08/24 02:30:59;;;;;;;0.68;0.40;;;;;;;24.19;45.12;101649.41;16130331;19;129755;-43
2022/08/24 02:36:22;;;;;;;2.88;0.40;;;;;;;24.18;45.12;101650.50;16135724;19;130412;-43
2022/08/24 02:41:48;;;;;;;0.68;0.45;;;;;;;24.20;45.11;101659.47;16131772;19;129728;-44
2022/08/24 02:47:10;;;;;;;0.50;0.45;;;;;;;24.18;45.40;101664.50;16144649;19;130468;-46
2022/08/24 02:52:31;;;;;;;0.57;0.45;;;;;;;24.18;45.04;101658.91;16143427;19;129742;-43
2022/08/24 02:57:53;;;;;;;0.73;0.50;;;;;;;24.17;45.02;101657.22;16145834;19;129846;-44
2022/08/24 03:03:15;;;;;;;0.95;0.68;;;;;;;24.16;45.05;101655.53;16145331;19;130290;-44
2022/08/24 03:08:37;;;;;;;1.35;0.68;;;;;;;24.16;45.07;101666.69;16140677;19;130915;-46
2022/08/24 03:14:00;;;;;;;1.33;0.52;;;;;;;24.16;45.07;101647.13;16144409;19;130702;-46
2022/08/24 03:19:22;;;;;;;1.50;0.60;;;;;;;24.14;44.92;101646.56;16146777;19;129748;-45
2022/08/24 03:24:44;;;;;;;1.00;0.60;;;;;;;24.13;44.62;101644.88;16147403;19;129570;-44
2022/08/24 03:30:09;;;;;;;2.40;0.50;;;;;;;24.12;44.99;101646.81;16146462;19;130126;-45
2022/08/24 03:35:32;;;;;;;4.07;0.70;;;;;;;24.12;44.72;101638.44;16143303;19;130625;-44
2022/08/24 03:40:55;;;;;;;3.03;1.25;;;;;;;24.13;44.86;101644.88;16142320;19;129101;-44
2022/08/24 03:46:20;;;;;;;2.40;0.75;;;;;;;24.13;44.58;101644.88;16146362;19;129618;-43
2022/08/24 03:51:42;;;;;;;5.30;0.95;;;;;;;24.12;44.70;101643.22;16144357;19;129385;-45
2022/08/24 03:57:04;;;;;;;8.20;1.60;;;;;;;24.13;44.92;101644.88;16140044;19;129824;-45
2022/08/24 04:02:26;;;;;;;5.28;1.13;;;;;;;24.13;44.44;101642.06;16146563;19;130594;-45
2022/08/24 04:07:53;;;;;;;4.68;1.00;;;;;;;24.12;44.65;101646.81;16145345;19;129784;-44
2022/08/24 04:13:16;;;;;;;9.82;1.42;;;;;;;24.12;44.64;101646.00;16141374;19;129628;-46
2022/08/24 04:18:39;;;;;;;3.70;0.80;;;;;;;24.13;44.49;101647.66;16144179;19;129739;-46
2022/08/24 04:24:02;;;;;;;6.03;1.10;;;;;;;24.12;44.96;101658.00;16143398;19;129000;-44
2022/08/24 04:29:24;;;;;;;6.82;1.10;;;;;;;24.12;44.64;101665.56;16144897;19;129373;-44
2022/08/24 04:34:46;;;;;;;4.75;0.82;;;;;;;24.12;44.37;101657.19;16139382;19;129492;-44
2022/08/24 04:40:08;;;;;;;5.28;1.10;;;;;;;24.12;44.29;101659.97;16144215;19;129591;-45
2022/08/24 04:45:31;;;;;;;20.52;1.30;;;;;;;24.10;44.37;101651.00;16141918;19;130082;-45
2022/08/24 04:50:53;;;;;;;14.23;1.63;;;;;;;24.09;44.55;101660.50;16139571;19;128971;-45
2022/08/24 04:56:22;;;;;;;11.95;1.17;;;;;;;24.10;44.39;101668.63;16138806;19;129572;-44
2022/08/24 05:01:44;;;;;;;4.75;1.45;;;;;;;24.08;44.33;101670.81;16142622;19;129945;-44
2022/08/24 05:07:06;;;;;;;5.63;1.00;;;;;;;24.09;44.57;101671.69;16140926;19;129463;-46
2022/08/24 05:12:27;;;;;;;8.50;1.27;;;;;;;24.08;44.41;101675.59;16138457;19;129252;-45
2022/08/24 05:17:49;;;;;;;9.45;1.15;;;;;;;24.08;44.69;101681.19;16143446;19;129221;-45
2022/08/24 05:23:12;;;;;;;5.55;1.10;;;;;;;24.08;44.60;101682.00;16141123;19;129271;-44
2022/08/24 05:28:34;;;;;;;4.15;0.98;;;;;;;24.08;44.67;101686.75;16140757;19;129313;-44
2022/08/24 05:33:58;;;;;;;1.40;0.90;;;;;;;24.08;44.65;101683.97;16136570;19;128901;-44
2022/08/24 05:39:20;;;;;;;1.73;0.77;;;;;;;24.08;44.51;101681.19;16140754;19;128897;-47
2022/08/24 05:44:41;;;;;;;3.13;0.70;;;;;;;24.10;44.87;101687.34;16139635;19;132138;-44
2022/08/24 05:50:05;;;;;;;3.38;0.80;;;;;;;24.08;44.52;101686.75;16138902;19;129508;-44
2022/08/24 05:55:29;;;;;;;2.50;0.90;;;;;;;24.10;44.36;101687.34;16134320;19;129372;-44
2022/08/24 06:00:51;;;;;;;2.65;0.75;;;;;;;24.09;44.23;101677.28;16135331;19;128949;-44
2022/08/24 06:06:14;;;;;;;8.00;3.75;;;;;;;24.07;44.48;101690.66;16138584;19;129537;-46
2022/08/24 06:11:38;;;;;;;18.70;4.18;;;;;;;24.03;44.83;101693.16;16129828;19;129515;-47
2022/08/24 06:17:02;;;;;;;14.70;3.95;;;;;;;24.01;44.80;101703.75;16134526;19;129063;-45
2022/08/24 06:22:24;;;;;;;14.50;5.57;;;;;;;23.99;45.41;101710.72;16137910;19;129638;-45
2022/08/24 06:27:46;;;;;;;11.60;4.68;;;;;;;24.02;45.51;101707.38;16136566;19;129482;-44
2022/08/24 06:33:09;;;;;;;12.70;4.50;;;;;;;24.01;45.67;101714.06;16131806;19;129297;-43
2022/08/24 06:38:31;;;;;;;15.57;4.22;;;;;;;24.04;45.51;101717.22;16136350;19;130059;-45
2022/08/24 06:43:53;;;;;;;10.80;3.90;;;;;;;24.05;45.29;101709.66;16135835;19;129420;-45
2022/08/24 06:49:15;;;;;;;9.88;3.80;;;;;;;24.06;45.41;101716.94;16131853;19;129306;-44
2022/08/24 06:54:37;;;;;;;6.00;2.85;;;;;;;24.06;44.97;101716.94;16131663;19;129412;-43
2022/08/24 06:59:59;;;;;;;7.63;2.88;;;;;;;24.05;45.27;101707.72;16134319;19;129936;-44
2022/08/24 07:05:21;;;;;;;3.90;2.25;;;;;;;24.07;45.46;101707.44;16134797;19;129838;-45
2022/08/24 07:10:44;;;;;;;6.45;2.22;;;;;;;24.07;45.20;101715.81;16132446;19;129272;-43
2022/08/24 07:16:06;;;;;;;5.32;2.05;;;;;;;24.08;45.46;101720.31;16125436;19;129345;-47
2022/08/24 07:21:29;;;;;;;5.72;1.80;;;;;;;24.08;45.45;101718.34;16134351;19;129468;-45
2022/08/24 07:26:51;;;;;;;3.90;1.65;;;;;;;24.09;45.41;101724.78;16131173;19;128898;-44
2022/08/24 07:32:13;;;;;;;4.10;2.13;;;;;;;24.10;45.40;101726.47;16138002;19;129389;-47
2022/08/24 07:37:35;;;;;;;5.18;1.83;;;;;;;24.10;45.20;101724.50;16146777;19;129305;-46
2022/08/24 07:43:02;;;;;;;5.32;1.75;;;;;;;24.10;45.25;101734.88;16148010;19;129707;-47
2022/08/24 07:48:24;;;;;;;5.28;1.70;;;;;;;24.09;45.68;101739.59;16146496;19;129287;-44
2022/08/24 07:53:46;;;;;;;4.55;1.63;;;;;;;24.11;45.07;101730.97;16142744;19;132543;-46
2022/08/24 07:59:16;;;;;;;2.67;1.48;;;;;;;24.11;45.44;101739.34;16147943;19;129410;-44
2022/08/24 08:04:38;;;;;;;2.75;1.50;;;;;;;24.11;45.41;101740.19;16146013;19;129441;-44
2022/08/24 08:10:01;;;;;;;3.45;1.70;;;;;;;24.12;45.32;101739.06;16145380;19;130120;-45
2022/08/24 08:15:24;;;;;;;3.13;1.40;;;;;;;24.12;45.52;101741.03;16143514;19;129445;-44
2022/08/24 08:20:47;;;;;;;3.97;1.80;;;;;;;24.12;45.47;101743.84;16145346;19;129842;-45
2022/08/24 08:26:19;;;;;;;2.08;1.00;;;;;;;24.14;45.38;101746.34;16145459;19;129679;-45
2022/08/24 08:31:41;;;;;;;3.95;1.40;;;;;;;24.13;45.29;101751.09;16140702;19;129015;-44
2022/08/24 08:37:03;;;;;;;5.03;1.38;;;;;;;24.12;45.26;101741.88;16144918;19;129614;-44
2022/08/24 08:42:55;;;;;;;2.63;1.25;;;;;;;24.14;45.45;101741.59;16145337;19;129360;-45
2022/08/24 08:48:46;;;;;;;2.20;1.25;;;;;;;24.15;45.42;101745.25;16141238;19;129608;-46
2022/08/24 08:54:32;;;;;;;1.70;1.00;;;;;;;24.14;45.44;101751.94;16139457;19;129134;-46
2022/08/24 08:59:57;;;;;;;3.35;1.70;;;;;;;24.14;45.52;101746.34;16144668;19;129935;-47
2022/08/24 09:05:56;;;;;;;1.70;1.00;;;;;;;24.14;45.36;101751.94;16138862;19;129281;-46
2022/08/24 09:11:55;;;;;;;3.17;1.00;;;;;;;24.13;45.42;101756.69;16141657;19;129484;-50
2022/08/24 09:17:29;;;;;;;2.97;1.05;;;;;;;24.13;45.63;101759.47;16142787;19;129975;-44
2022/08/24 09:23:10;;;;;;;1.73;1.00;;;;;;;24.13;45.42;101759.47;16141770;19;129176;-44
2022/08/24 09:29:14;;;;;;;2.28;1.80;;;;;;;24.12;45.63;101755.03;16141594;19;130622;-45
2022/08/24 09:34:49;;;;;;;4.70;1.80;;;;;;;24.14;45.70;101761.16;16135325;19;129614;-45
2022/08/24 09:40:42;;;;;;;1.17;0.98;;;;;;;24.13;45.49;101756.69;16139098;19;128900;-47
2022/08/24 09:46:39;;;;;;;2.85;1.00;;;;;;;24.13;45.54;101753.88;16139569;19;130959;-46
2022/08/24 09:52:38;;;;;;;4.15;1.02;;;;;;;24.13;45.40;101753.88;16134427;19;129022;-47
2022/08/24 09:58:17;;;;;;;1.05;0.85;;;;;;;24.13;45.88;101745.50;16139872;19;129776;-46
2022/08/24 10:04:04;;;;;;;1.77;0.90;;;;;;;24.14;45.58;101754.75;16135613;19;131030;-46
2022/08/24 10:10:08;;;;;;;1.83;0.90;;;;;;;24.14;45.50;101747.19;16138840;19;129281;-46
2022/08/24 10:15:45;;;;;;;1.42;1.00;;;;;;;24.13;45.70;101742.69;16132282;19;129721;-47
2022/08/24 10:21:28;;;;;;;1.73;0.93;;;;;;;24.14;45.52;101736.00;16138646;19;129016;-45
2022/08/24 10:26:55;;;;;;;1.35;0.90;;;;;;;24.14;45.33;101730.41;16135631;19;128875;-47
2022/08/24 10:32:56;;;;;;;1.00;0.90;;;;;;;24.12;45.65;101729.88;16136299;19;129151;-45
2022/08/24 10:44:47;;;;;;;2.05;0.77;;;;;;;24.15;45.39;101720.94;16123019;19;129363;-45
2022/08/24 10:50:28;;;;;;;1.52;0.75;;;;;;;24.16;45.69;101717.03;16126887;19;129573;-44
2022/08/24 10:56:38;;;;;;;2.22;0.80;;;;;;;24.14;45.51;101715.59;16122827;19;129826;-47
2022/08/24 11:02:06;;;;;;;;;;;;;;;24.12;45.55;101715.88;16127012;19;130220;-46
2022/08/24 11:07:34;;;;;;;0.70;0.60;;;;;;;24.15;45.63;101698.56;16137831;19;129798;-48
2022/08/24 11:13:17;;;;;;;1.10;0.80;;;;;;;24.16;45.58;101700.25;16138842;19;129400;-45
2022/08/24 11:18:52;;;;;;;1.45;0.77;;;;;;;24.17;45.65;101695.53;16140634;19;129994;-46
2022/08/24 11:24:16;;;;;;;1.90;0.87;;;;;;;24.16;45.75;101688.25;16140570;19;129141;-46
2022/08/24 11:29:50;;;;;;;1.43;0.80;;;;;;;24.18;45.32;101678.47;16138791;19;129429;-45
2022/08/24 11:35:30;;;;;;;2.25;0.88;;;;;;;24.19;45.54;101674.56;16138277;19;129384;-45
2022/08/24 11:41:18;;;;;;;1.67;0.95;;;;;;;24.18;45.20;101674.84;16175808;19;129136;-48
2022/08/24 11:46:52;;;;;;;1.67;0.70;;;;;;;24.19;45.36;101671.78;16179186;19;129372;-48
2022/08/24 11:52:52;;;;;;;6.15;0.82;;;;;;;24.21;45.78;101661.16;16176660;19;129705;-54
2022/08/24 11:58:45;;;;;;;3.33;0.90;;;;;;;24.27;45.82;101662.91;16175646;19;129520;-45
2022/08/24 12:04:31;;;;;;;1.25;0.70;;;;;;;24.31;45.54;101635.25;16167200;19;129451;-53
2022/08/24 12:10:30;;;;;;;10.50;1.50;;;;;;;24.38;46.20;101637.81;16147866;19;129268;-52
2022/08/24 12:16:11;;;;;;;11.27;2.00;;;;;;;24.44;46.56;101639.56;16139113;19;129049;-47
2022/08/24 12:21:37;;;;;;;10.07;2.67;;;;;;;24.49;46.68;101628.41;16146057;19;130202;-46
2022/08/24 12:27:12;;;;;;;11.27;2.22;;;;;;;24.54;46.94;101622.84;16138208;19;131152;-46
2022/08/24 12:32:46;;;;;;;13.82;1.73;;;;;;;24.60;46.70;101632.09;16133310;19;129720;-47
2022/08/24 12:38:18;;;;;;;11.00;2.08;;;;;;;24.64;46.69;101621.19;16142722;19;130279;-47
2022/08/24 12:44:04;;;;;;;7.18;1.55;;;;;;;24.68;46.68;101622.34;16139361;19;129631;-44
2022/08/24 12:49:35;;;;;;;6.18;1.80;;;;;;;24.73;46.54;101616.81;16141542;19;130534;-46
2022/08/24 12:55:29;;;;;;;7.15;1.40;;;;;;;24.79;46.68;101612.91;16135489;19;130388;-45
2022/08/24 13:00:51;;;;;;;7.43;1.88;;;;;;;24.80;46.63;101611.78;16137635;19;130446;-44
2022/08/24 13:06:24;;;;;;;11.02;1.80;;;;;;;24.81;46.56;101610.69;16134020;19;130217;-45
2022/08/24 13:11:47;;;;;;;6.70;1.63;;;;;;;24.81;46.58;101602.28;16135716;19;129916;-46
2022/08/24 13:17:12;;;;;;;7.47;1.60;;;;;;;24.85;46.50;101594.19;16134476;19;129975;-45
2022/08/24 13:22:45;;;;;;;9.50;1.75;;;;;;;24.86;46.48;101595.84;16137686;19;129878;-49
2022/08/24 13:28:19;;;;;;;5.97;1.92;;;;;;;24.91;46.26;101597.88;16140629;19;129662;-47
2022/08/24 13:33:56;;;;;;;4.32;1.50;;;;;;;24.93;46.12;101595.63;16135819;19;129328;-46
2022/08/24 13:39:36;;;;;;;3.17;1.13;;;;;;;24.93;46.37;101592.84;16138045;19;129476;-47
2022/08/24 13:45:16;;;;;;;6.00;1.50;;;;;;;24.95;46.09;101591.44;16135295;19;130271;-47
2022/08/24 13:51:04;;;;;;;5.05;1.00;;;;;;;24.99;46.11;101584.19;16137775;19;130117;-46
2022/08/24 13:56:46;;;;;;;7.68;1.58;;;;;;;25.01;46.15;101575.50;16128578;19;129695;-44
2022/08/24 14:02:14;;;;;;;5.55;1.65;;;;;;;25.00;46.21;101566.28;16137220;19;129256;-47
2022/08/24 14:07:52;;;;;;;5.53;1.10;;;;;;;25.01;46.34;101576.38;16135541;19;129313;-47
2022/08/24 14:13:43;;;;;;;3.35;1.20;;;;;;;25.03;46.46;101573.28;16135222;19;132200;-45
2022/08/24 14:19:19;;;;;;;10.18;1.58;;;;;;;25.02;46.62;101558.47;16135777;19;128940;-47
2022/08/24 14:24:44;;;;;;;8.00;1.70;;;;;;;25.05;46.63;101565.44;16130722;19;130162;-45
2022/08/24 14:30:18;;;;;;;10.48;1.45;;;;;;;25.07;46.93;101557.63;16135224;19;130458;-49
2022/08/24 14:35:40;;;;;;;4.95;1.30;;;;;;;25.07;46.43;101556.78;16131154;19;129264;-45
2022/08/24 14:41:21;;;;;;;2.38;1.13;;;;;;;25.08;46.58;101556.50;16134477;19;129841;-46
2022/08/24 14:47:05;;;;;;;5.28;1.23;;;;;;;25.08;46.28;101542.50;16133394;19;128990;-45
2022/08/24 14:52:49;;;;;;;9.48;1.63;;;;;;;25.11;46.35;101550.34;16130094;19;129295;-45
2022/08/24 14:58:40;;;;;;;4.55;1.80;;;;;;;25.10;46.41;101550.63;16126287;19;129847;-49
2022/08/24 15:04:20;;;;;;;9.27;1.83;;;;;;;25.10;46.39;101545.03;16130919;19;130064;-50
2022/08/24 15:10:00;;;;;;;11.27;2.17;;;;;;;25.12;46.86;101535.22;16131070;19;131792;-45
2022/08/24 15:15:31;;;;;;;8.57;2.25;;;;;;;25.12;47.42;101532.44;16129364;19;129173;-46
2022/08/24 15:21:06;;;;;;;11.23;2.00;;;;;;;25.07;47.79;101529.63;16133439;19;128885;-44
2022/08/24 15:26:59;;;;;;;3.50;1.30;;;;;;;25.05;47.66;101526.25;16133503;19;129409;-44
2022/08/24 15:32:43;;;;;;;6.60;1.50;;;;;;;25.00;47.57;101518.69;16129078;19;128949;-43
2022/08/24 15:38:18;;;;;;;15.75;2.05;;;;;;;24.98;47.69;101525.69;16125997;19;130188;-44
2022/08/24 15:43:58;;;;;;;6.85;1.75;;;;;;;25.00;47.64;101523.44;16131815;19;129110;-45
2022/08/24 15:49:28;;;;;;;7.05;1.38;;;;;;;25.01;47.77;101519.53;16130318;19;129163;-44
2022/08/24 15:55:00;;;;;;;6.30;1.25;;;;;;;25.01;47.78;101516.72;16140860;19;129089;-43
2022/08/24 16:06:17;;;;;;;8.63;1.50;;;;;;;25.01;47.57;101513.94;16147430;19;128896;-45
2022/08/24 16:12:01;;;;;;;3.95;1.00;;;;;;;25.02;47.60;101510.00;16146803;19;129139;-43
2022/08/24 16:17:29;;;;;;;5.10;1.02;;;;;;;25.01;47.60;101503.59;16143036;19;129222;-45
2022/08/24 16:22:58;;;;;;;3.67;1.02;;;;;;;25.02;47.73;101510.00;16144460;19;130587;-45
2022/08/24 16:28:21;;;;;;;11.27;1.20;;;;;;;24.99;47.50;101504.97;16143618;19;128978;-50
2022/08/24 16:33:46;;;;;;;11.48;1.30;;;;;;;24.98;47.76;101506.09;16138493;19;129032;-45
2022/08/24 16:39:10;;;;;;;11.48;1.40;;;;;;;24.96;47.20;101505.53;16142407;19;130245;-46
2022/08/24 16:44:35;;;;;;;8.97;1.40;;;;;;;24.90;47.37;101510.28;16142132;19;129802;-45
2022/08/24 16:49:57;;;;;;;;;;;;;;;24.83;47.74;101507.72;16145714;19;129170;-48
2022/08/24 16:55:19;;;;;;;9.02;0.88;;;;;;;24.83;47.51;101512.44;16140651;19;129161;-46
2022/08/24 17:00:44;;;;;;;4.18;0.90;;;;;;;24.80;47.80;101513.00;16143343;19;129906;-45
2022/08/24 17:06:06;;;;;;;7.15;1.35;;;;;;;24.78;47.76;101512.44;16139527;19;129928;-48
2022/08/24 17:11:28;;;;;;;12.05;1.30;;;;;;;24.78;47.52;101509.66;16141409;19;129177;-45
2022/08/24 17:16:50;;;;;;;4.45;0.85;;;;;;;24.79;47.82;101506.56;16137730;19;129720;-49
2022/08/24 17:22:12;;;;;;;4.05;1.17;;;;;;;24.81;47.73;101512.72;16138757;19;129541;-44
2022/08/24 17:27:37;;;;;;;5.90;1.00;;;;;;;24.84;47.67;101503.78;16141239;19;129526;-45
2022/08/24 17:32:58;;;;;;;3.20;1.17;;;;;;;24.85;47.85;101499.88;16141396;19;129365;-49
2022/08/24 17:38:20;;;;;;;4.75;0.90;;;;;;;24.86;47.33;101507.13;16134736;19;129506;-48
2022/08/24 17:43:42;;;;;;;6.32;0.90;;;;;;;24.88;47.71;101509.69;16140806;19;132547;-48
2022/08/24 17:49:06;;;;;;;4.80;0.80;;;;;;;24.87;47.58;101516.38;16135945;19;129123;-42
2022/08/24 17:54:27;;;;;;;3.50;0.77;;;;;;;24.87;47.32;101519.19;16133996;19;132301;-47
2022/08/24 17:59:49;;;;;;;5.78;0.80;;;;;;;24.87;47.51;101525.59;16138343;19;130025;-46
2022/08/24 18:05:13;;;;;;;4.20;0.60;;;;;;;24.86;47.36;101523.09;16138182;19;129490;-45
2022/08/24 18:10:35;;;;;;;1.95;0.55;;;;;;;24.86;47.45;101529.53;16136250;19;129352;-46
2022/08/24 18:15:57;;;;;;;1.85;0.70;;;;;;;24.84;47.25;101533.72;16134510;19;129602;-46
2022/08/24 18:21:20;;;;;;;2.13;0.73;;;;;;;24.81;47.06;101543.50;16135757;19;129278;-46
2022/08/24 18:26:43;;;;;;;1.92;0.65;;;;;;;24.81;46.68;101537.06;16137561;19;130318;-44
2022/08/24 18:32:10;;;;;;;2.35;0.68;;;;;;;24.77;47.02;101541.53;16134686;19;129168;-44
2022/08/24 18:37:32;;;;;;;1.27;0.60;;;;;;;24.75;46.86;101544.59;16128614;19;129787;-44
2022/08/24 18:42:55;;;;;;;3.10;0.65;;;;;;;24.71;47.21;101549.06;16134570;19;129945;-47
2022/08/24 18:48:20;;;;;;;1.05;0.50;;;;;;;24.67;47.17;101550.72;16133359;19;129433;-44
2022/08/24 18:53:42;;;;;;;3.30;0.70;;;;;;;24.67;46.77;101559.13;16130917;19;131025;-46
2022/08/24 18:59:04;;;;;;;2.17;0.60;;;;;;;24.64;46.91;101562.44;16129551;19;130259;-43
2022/08/24 19:04:27;;;;;;;1.58;0.60;;;;;;;24.62;47.21;101559.06;16133114;19;129495;-46
2022/08/24 19:09:54;;;;;;;1.67;0.70;;;;;;;24.62;47.01;101561.88;16126474;19;129040;-48
2022/08/24 19:15:16;;;;;;;1.02;0.60;;;;;;;24.60;47.19;101569.72;16127654;19;130007;-48
2022/08/24 19:20:58;;;;;;;0.70;0.50;;;;;;;24.60;46.54;101575.31;16130523;19;129343;-45
2022/08/24 19:26:20;;;;;;;1.42;0.73;;;;;;;24.55;46.91;101573.34;16134451;19;129973;-48
2022/08/24 19:31:42;;;;;;;0.95;0.68;;;;;;;24.54;46.87;101572.47;16145327;19;131577;-45
2022/08/24 19:37:04;;;;;;;2.08;0.50;;;;;;;24.55;46.79;101568.56;16142708;19;129222;-44
2022/08/24 19:42:26;;;;;;;2.22;0.77;;;;;;;24.56;46.97;101573.06;16143917;19;129541;-45
2022/08/24 19:47:47;;;;;;;1.10;0.90;;;;;;;24.60;46.59;101570.56;16143160;19;129001;-47
2022/08/24 19:53:09;;;;;;;3.30;0.73;;;;;;;24.63;46.65;101563.56;16143175;19;128981;-49
2022/08/24 19:58:37;;;;;;;1.45;0.70;;;;;;;24.66;46.69;101569.47;16142022;19;129589;-47
2022/08/24 20:04:07;;;;;;;4.32;0.93;;;;;;;24.67;46.49;101567.50;16146137;19;129018;-47
2022/08/24 20:09:31;;;;;;;1.65;0.80;;;;;;;24.66;46.40;101563.03;16144721;19;130246;-48
2022/08/24 20:14:53;;;;;;;1.25;0.70;;;;;;;24.66;46.61;101569.47;16143671;19;131110;-44
2022/08/24 20:20:18;;;;;;;3.03;0.82;;;;;;;24.68;46.38;101572.00;16143488;19;129772;-44
2022/08/24 20:25:40;;;;;;;5.22;0.80;;;;;;;24.66;46.68;101575.06;16142713;19;129188;-45
2022/08/24 20:31:02;;;;;;;3.13;0.95;;;;;;;24.67;46.29;101568.38;16143998;19;129392;-50
2022/08/24 20:36:36;;;;;;;3.53;0.70;;;;;;;24.67;46.53;101571.16;16141841;19;129484;-46
2022/08/24 20:41:57;;;;;;;3.42;0.90;;;;;;;24.67;46.40;101561.91;16143420;19;128912;-44
2022/08/24 20:47:20;;;;;;;7.65;1.27;;;;;;;24.68;46.28;101566.41;16136858;19;129679;-44
2022/08/24 20:52:42;;;;;;;5.80;0.95;;;;;;;24.68;46.07;101572.00;16141848;19;129570;-47
2022/08/24 20:58:04;;;;;;;2.15;0.82;;;;;;;24.67;46.07;101565.56;16140464;19;129559;-44
2022/08/24 21:03:26;;;;;;;2.50;0.82;;;;;;;24.67;46.38;101568.38;16142336;19;129090;-46
2022/08/24 21:08:52;;;;;;;3.85;0.80;;;;;;;24.68;46.05;101572.00;16142325;19;128896;-46
2022/08/24 21:14:13;;;;;;;1.10;0.93;;;;;;;24.67;46.20;101571.16;16139789;19;129853;-47
2022/08/24 21:19:35;;;;;;;2.72;0.70;;;;;;;24.67;46.28;101564.72;16138536;19;129918;-44
2022/08/24 21:24:57;;;;;;;1.65;0.70;;;;;;;24.65;45.96;101567.78;16137937;19;129285;-45
2022/08/24 21:30:20;;;;;;;2.70;0.80;;;;;;;24.65;46.28;101559.41;16138199;19;129613;-48
2022/08/24 21:35:43;;;;;;;2.40;0.82;;;;;;;24.66;46.74;101566.69;16140072;19;130524;-46
2022/08/24 21:41:05;;;;;;;1.98;0.85;;;;;;;24.68;46.88;101567.22;16140071;19;129251;-50
2022/08/24 21:46:31;;;;;;;3.80;0.90;;;;;;;24.69;46.75;101571.72;16141912;19;129472;-48
2022/08/24 21:51:53;;;;;;;6.20;0.90;;;;;;;24.70;46.88;101580.97;16138812;19;129282;-47
2022/08/24 21:57:14;;;;;;;1.95;0.90;;;;;;;24.68;46.66;101574.78;16133095;19;131274;-48
2022/08/24 22:02:37;;;;;;;2.85;0.90;;;;;;;24.67;47.27;101568.38;16135612;19;129345;-48
2022/08/24 22:07:59;;;;;;;2.75;1.05;;;;;;;24.67;47.34;101575.91;16138056;19;130554;-47
2022/08/24 22:13:21;;;;;;;4.63;1.10;;;;;;;24.66;47.38;101572.28;16138710;19;131001;-45
2022/08/24 22:18:43;;;;;;;1.90;0.90;;;;;;;24.66;47.78;101558.28;16133704;19;130182;-48
2022/08/24 22:24:05;;;;;;;2.83;1.00;;;;;;;24.66;47.95;101557.44;16135705;19;129091;-47
2022/08/24 22:29:27;;;;;;;1.67;0.82;;;;;;;24.65;48.06;101556.59;16136240;19;130156;-47
2022/08/24 22:34:50;;;;;;;3.50;1.10;;;;;;;24.65;47.69;101550.16;16138519;19;129276;-44
2022/08/24 22:40:12;;;;;;;1.58;1.00;;;;;;;24.64;48.18;101548.47;16132449;19;129831;-48
2022/08/24 22:45:34;;;;;;;1.60;0.90;;;;;;;24.64;48.23;101531.69;16137969;19;129115;-44
2022/08/24 22:50:55;;;;;;;1.52;0.88;;;;;;;24.62;48.04;101539.50;16137318;19;129652;-46
2022/08/24 22:56:20;;;;;;;2.65;0.90;;;;;;;24.62;48.25;101534.75;16132326;19;129397;-45
2022/08/24 23:01:44;;;;;;;0.98;0.88;;;;;;;24.62;48.56;101534.75;16145068;19;130386;-46
2022/08/24 23:07:06;;;;;;;2.35;0.90;;;;;;;24.62;48.68;101534.75;16151388;19;129344;-47
2022/08/24 23:12:28;;;;;;;1.35;0.95;;;;;;;24.60;48.89;101530.56;16151949;19;129376;-46
2022/08/24 23:17:50;;;;;;;0.82;0.75;;;;;;;24.61;48.48;101532.25;16146075;19;128960;-44
2022/08/24 23:23:12;;;;;;;0.75;0.75;;;;;;;24.60;49.14;101525.78;16151981;19;129447;-47
2022/08/24 23:28:33;;;;;;;2.78;0.90;;;;;;;24.60;48.69;101519.38;16149542;19;129984;-47
2022/08/24 23:33:56;;;;;;;1.58;0.98;;;;;;;24.58;48.80;101512.09;16149974;19;130048;-50
2022/08/24 23:39:19;;;;;;;1.90;1.02;;;;;;;24.58;49.04;101516.81;16142620;19;130310;-44
2022/08/24 23:44:41;;;;;;;1.40;0.93;;;;;;;24.58;49.30;101512.09;16147206;19;129684;-48
2022/08/24 23:50:04;;;;;;;1.02;0.65;;;;;;;24.58;49.32;101509.28;16146859;19;129639;-45
2022/08/24 23:55:31;;;;;;;0.80;0.80;;;;;;;24.58;49.30;101516.81;16143195;19;129746;-48
